Terminal Aerodrome Forecast
Issued by NWS

Home | Current Version | Previous Version | Text Only | Print | Product List | Glossary On
Versions: 1 2 3 4 5 6 7 8 9 10 11 12 13 14 15 16 17 18 19 20 21 22 23 24 25 26 27 28 29 30 31 32 33
764
FTUS45 KPSR 292339 CCA
TAFIWA
TAF COR
KIWA 292339Z 3000/3024 28012G20KT P6SM SCT090
     FM300200 27005KT P6SM FEW100
     FM300800 12007KT P6SM FEW100
     FM301800 21015G24KT P6SM SCT090 BKN110
      AMD LTD TO CLD VIS AND WIND 3003/3013=

USA.gov is the U.S. government's official web portal to all federal, state and local government web resources and services.